Time;durP1;ratioP1;P1;durP2;ratioP2;P2;SDS_P1;SDS_P2;PMS_P1;PMS_P2;Temp;Humidity;BMP_temperature;BMP_pressure;BME280_temperature;BME280_humidity;BME280_pressure;Samples;Min_cycle;Max_cycle;Signal;HPM_P1;HPM_P2
2023/04/10 00:00:18;;;;;;;3.80;1.00;;;;;;;;;;4906376;29;20555;-69
2023/04/10 00:02:45;;;;;;;;;;;;;;;;;;4899596;29;20042;-69
2023/04/10 00:05:11;;;;;;;4.03;1.00;;;;;;;;;;4904319;29;22852;-69
2023/04/10 00:07:37;;;;;;;;;;;;;;;;;;4905422;28;20451;-69
2023/04/10 00:10:03;;;;;;;4.88;1.15;;;;;;;;;;4892847;29;19914;-70
2023/04/10 00:12:29;;;;;;;;;;;;;;;;;;4908292;29;20055;-70
2023/04/10 00:14:55;;;;;;;3.55;1.00;;;;;;;;;;4903095;29;19999;-70
2023/04/10 00:17:21;;;;;;;4.30;1.00;;;;;;;;;;4908338;29;20035;-70
2023/04/10 00:19:47;;;;;;;;;;;;;;;;;;4907898;29;20323;-70
2023/04/10 00:22:14;;;;;;;4.85;1.10;;;;;;;;;;4905357;29;20008;-69
2023/04/10 00:24:40;;;;;;;3.95;1.00;;;;;;;;;;4902662;28;20043;-70
2023/04/10 00:27:06;;;;;;;;;;;;;;;;;;4895321;29;20109;-69
2023/04/10 00:29:32;;;;;;;3.03;1.02;;;;;;;;;;4919870;28;19918;-71
2023/04/10 00:31:58;;;;;;;4.05;1.05;;;;;;;;;;4904400;29;20538;-70
2023/04/10 00:34:25;;;;;;;6.05;1.63;;;;;;;;;;4908465;29;20263;-71
2023/04/10 00:36:51;;;;;;;6.30;1.70;;;;;;;;;;4892666;29;20040;-70
2023/04/10 00:39:17;;;;;;;5.82;1.70;;;;;;;;;;4905536;29;20024;-69
2023/04/10 00:41:43;;;;;;;;;;;;;;;;;;4908753;29;20074;-69
2023/04/10 00:44:09;;;;;;;5.72;1.40;;;;;;;;;;4900755;29;19937;-70
2023/04/10 00:46:37;;;;;;;6.47;1.40;;;;;;;;;;4896172;29;20016;-69
2023/04/10 00:49:03;;;;;;;4.57;1.00;;;;;;;;;;4903108;29;20442;-70
2023/04/10 00:51:30;;;;;;;4.13;1.20;;;;;;;;;;4901648;29;20367;-68
2023/04/10 00:53:56;;;;;;;3.95;1.02;;;;;;;;;;4910153;29;20040;-69
2023/04/10 00:56:22;;;;;;;;;;;;;;;;;;4910024;29;20035;-69
2023/04/10 00:58:48;;;;;;;5.10;1.60;;;;;;;;;;4905808;29;19962;-69
2023/04/10 01:01:15;;;;;;;5.88;1.50;;;;;;;;;;4909699;29;20031;-69
2023/04/10 01:03:42;;;;;;;5.43;1.48;;;;;;;;;;4922704;29;20269;-69
2023/04/10 01:06:18;;;;;;;3.65;1.13;;;;;;;;;;4916986;29;20039;-69
2023/04/10 01:09:03;;;;;;;5.60;1.40;;;;;;;;;;4906660;29;20437;-69
2023/04/10 01:11:41;;;;;;;4.55;1.02;;;;;;;;;;4903889;29;20378;-70
2023/04/10 01:14:11;;;;;;;5.72;1.00;;;;;;;;;;4903085;29;20054;-70
2023/04/10 01:16:48;;;;;;;4.88;1.10;;;;;;;;;;4904419;29;20071;-69
2023/04/10 01:19:33;;;;;;;5.80;1.15;;;;;;;;;;4900127;29;20036;-69
2023/04/10 01:22:02;;;;;;;4.22;1.02;;;;;;;;;;4902562;29;20039;-69
2023/04/10 01:24:48;;;;;;;5.80;1.20;;;;;;;;;;4906646;29;20425;-70
2023/04/10 01:27:30;;;;;;;6.63;1.40;;;;;;;;;;4903359;29;20040;-71
2023/04/10 01:29:58;;;;;;;7.43;2.83;;;;;;;;;;4900399;29;20031;-71
2023/04/10 01:32:25;;;;;;;10.77;3.00;;;;;;;;;;4904943;29;20368;-71
2023/04/10 01:34:52;;;;;;;8.98;3.28;;;;;;;;;;4902867;29;20047;-69
2023/04/10 01:37:21;;;;;;;9.20;3.10;;;;;;;;;;4904956;29;20249;-72
2023/04/10 01:39:50;;;;;;;10.10;3.30;;;;;;;;;;4890641;29;20036;-71
2023/04/10 01:42:17;;;;;;;8.75;2.80;;;;;;;;;;4901796;29;20223;-71
2023/04/10 01:44:45;;;;;;;7.63;2.50;;;;;;;;;;4917828;28;20484;-71
2023/04/10 01:47:13;;;;;;;9.48;2.47;;;;;;;;;;4900870;29;21322;-71
2023/04/10 01:49:43;;;;;;;5.97;1.80;;;;;;;;;;4905406;29;20051;-69
2023/04/10 01:52:10;;;;;;;6.20;1.75;;;;;;;;;;4901538;29;20039;-69
2023/04/10 01:54:36;;;;;;;6.65;1.63;;;;;;;;;;4901902;29;20043;-70
2023/04/10 01:57:04;;;;;;;5.57;1.38;;;;;;;;;;4899508;29;20119;-69
2023/04/10 01:59:31;;;;;;;5.50;1.42;;;;;;;;;;4905072;29;20146;-69
2023/04/10 02:02:00;;;;;;;4.78;1.65;;;;;;;;;;4899774;29;20042;-69
2023/04/10 02:04:27;;;;;;;4.63;1.38;;;;;;;;;;4895457;29;20615;-69
2023/04/10 02:07:06;;;;;;;5.13;1.58;;;;;;;;;;4903878;29;20615;-69
2023/04/10 02:10:03;;;;;;;6.70;1.63;;;;;;;;;;4883216;29;20047;-69
2023/04/10 02:12:37;;;;;;;4.35;1.33;;;;;;;;;;4881310;29;20492;-69
2023/04/10 02:15:05;;;;;;;5.18;1.60;;;;;;;;;;4877125;29;20043;-69
2023/04/10 02:17:33;;;;;;;5.00;1.50;;;;;;;;;;4881823;29;20175;-69
2023/04/10 02:20:00;;;;;;;5.93;1.23;;;;;;;;;;4877333;29;20076;-69
2023/04/10 02:22:28;;;;;;;3.95;1.30;;;;;;;;;;4864341;29;20028;-69
2023/04/10 02:24:57;;;;;;;4.60;1.30;;;;;;;;;;4879849;29;20040;-69
2023/04/10 02:27:36;;;;;;;4.60;1.30;;;;;;;;;;4866061;29;20051;-69
2023/04/10 02:30:03;;;;;;;5.63;1.45;;;;;;;;;;4862967;29;20365;-69
2023/04/10 02:32:33;;;;;;;4.80;1.45;;;;;;;;;;4879605;29;20044;-69
2023/04/10 02:35:01;;;;;;;3.90;1.27;;;;;;;;;;4858647;29;20058;-69
2023/04/10 02:37:29;;;;;;;7.57;1.50;;;;;;;;;;4862147;29;20067;-70
2023/04/10 02:39:56;;;;;;;6.10;1.40;;;;;;;;;;4879397;29;20848;-70
2023/04/10 02:42:22;;;;;;;4.75;1.40;;;;;;;;;;4882490;29;20040;-70
2023/04/10 02:44:51;;;;;;;4.50;1.40;;;;;;;;;;4879225;29;20609;-70
2023/04/10 02:47:18;;;;;;;6.28;1.52;;;;;;;;;;4879936;29;20051;-70
2023/04/10 02:49:47;;;;;;;3.70;1.15;;;;;;;;;;4876371;29;20127;-69
2023/04/10 02:52:16;;;;;;;3.70;1.40;;;;;;;;;;4877855;29;20640;-69
2023/04/10 02:54:45;;;;;;;4.63;1.42;;;;;;;;;;4880589;29;21870;-70
2023/04/10 02:57:12;;;;;;;5.30;1.38;;;;;;;;;;4872761;29;20298;-70
2023/04/10 02:59:39;;;;;;;4.75;1.55;;;;;;;;;;4880068;29;20044;-70
2023/04/10 03:02:09;;;;;;;5.70;1.80;;;;;;;;;;4874711;29;20404;-70
2023/04/10 03:04:37;;;;;;;7.07;2.00;;;;;;;;;;4877354;29;20090;-69
2023/04/10 03:07:05;;;;;;;7.10;2.10;;;;;;;;;;4863143;29;20369;-71
2023/04/10 03:09:34;;;;;;;6.80;1.55;;;;;;;;;;4878036;29;20037;-71
2023/04/10 03:12:01;;;;;;;5.43;1.55;;;;;;;;;;4861143;29;20532;-71
2023/04/10 03:14:28;;;;;;;4.82;1.60;;;;;;;;;;4861661;29;20134;-70
2023/04/10 03:16:55;;;;;;;6.70;2.00;;;;;;;;;;4864337;29;20511;-70
2023/04/10 03:19:25;;;;;;;5.53;1.83;;;;;;;;;;4877723;29;20047;-70
2023/04/10 03:21:53;;;;;;;5.00;1.63;;;;;;;;;;4872924;29;20049;-71
2023/04/10 03:24:19;;;;;;;6.22;1.80;;;;;;;;;;4880883;29;20032;-70
2023/04/10 03:26:47;;;;;;;5.63;1.67;;;;;;;;;;4882018;29;20538;-69
2023/04/10 03:29:17;;;;;;;4.60;1.58;;;;;;;;;;4872951;29;20087;-69
2023/04/10 03:31:45;;;;;;;5.53;1.52;;;;;;;;;;4878070;29;20056;-69
2023/04/10 03:34:12;;;;;;;4.88;1.42;;;;;;;;;;4865216;29;20789;-71
2023/04/10 03:36:40;;;;;;;5.75;1.50;;;;;;;;;;4878249;29;20598;-71
2023/04/10 03:39:09;;;;;;;4.15;1.50;;;;;;;;;;4876184;29;20037;-69
2023/04/10 03:41:36;;;;;;;5.13;1.50;;;;;;;;;;4866101;29;20024;-70
2023/04/10 03:44:04;;;;;;;5.05;1.40;;;;;;;;;;4874250;29;20032;-70
2023/04/10 03:46:32;;;;;;;3.60;1.17;;;;;;;;;;4879105;29;20051;-70
2023/04/10 03:48:59;;;;;;;4.82;1.45;;;;;;;;;;4874600;29;20891;-70
2023/04/10 03:51:27;;;;;;;5.43;1.35;;;;;;;;;;4875928;29;20139;-70
2023/04/10 03:53:54;;;;;;;6.35;1.70;;;;;;;;;;4877788;29;20051;-70
2023/04/10 03:56:22;;;;;;;5.72;1.65;;;;;;;;;;4883705;29;20140;-70
2023/04/10 03:58:50;;;;;;;5.70;1.77;;;;;;;;;;4896910;29;20082;-70
2023/04/10 04:01:17;;;;;;;6.28;1.65;;;;;;;;;;4900444;29;20074;-69
2023/04/10 04:03:43;;;;;;;6.82;1.70;;;;;;;;;;4905530;29;20040;-70
2023/04/10 04:06:11;;;;;;;4.60;1.60;;;;;;;;;;4903634;28;20040;-69
2023/04/10 04:08:38;;;;;;;4.82;1.73;;;;;;;;;;4904610;29;20134;-71
2023/04/10 04:11:04;;;;;;;5.65;1.65;;;;;;;;;;4902487;29;20135;-69
2023/04/10 04:13:31;;;;;;;4.70;1.45;;;;;;;;;;4908892;29;20031;-71
2023/04/10 04:15:58;;;;;;;4.82;1.40;;;;;;;;;;4901904;29;20411;-69
2023/04/10 04:18:26;;;;;;;3.80;1.13;;;;;;;;;;4904619;29;20023;-69
2023/04/10 04:20:52;;;;;;;5.25;1.40;;;;;;;;;;4897057;29;20040;-72
2023/04/10 04:23:18;;;;;;;4.32;1.20;;;;;;;;;;4908319;28;20432;-70
2023/04/10 04:25:45;;;;;;;4.88;1.30;;;;;;;;;;4905156;29;20451;-71
2023/04/10 04:28:14;;;;;;;3.72;1.20;;;;;;;;;;4901933;29;20980;-69
2023/04/10 04:30:42;;;;;;;5.13;1.38;;;;;;;;;;4907749;29;20035;-71
2023/04/10 04:33:09;;;;;;;3.83;1.20;;;;;;;;;;4901186;29;20098;-71
2023/04/10 04:35:35;;;;;;;4.85;1.30;;;;;;;;;;4907856;29;20643;-70
2023/04/10 04:38:03;;;;;;;6.45;2.00;;;;;;;;;;4900369;29;20316;-70
2023/04/10 04:40:29;;;;;;;4.90;1.50;;;;;;;;;;4906780;29;20027;-71
2023/04/10 04:42:56;;;;;;;;;;;;;;;;;;4913388;28;20023;-69
2023/04/10 04:45:24;;;;;;;5.63;1.30;;;;;;;;;;4903011;29;19925;-72
2023/04/10 04:47:53;;;;;;;3.17;1.13;;;;;;;;;;4903849;29;20146;-70
2023/04/10 04:50:20;;;;;;;4.30;1.20;;;;;;;;;;4907917;29;20470;-70
2023/04/10 04:52:46;;;;;;;4.43;1.17;;;;;;;;;;4902177;29;20319;-70
2023/04/10 04:55:14;;;;;;;4.50;1.30;;;;;;;;;;4899531;29;20048;-70
2023/04/10 04:57:41;;;;;;;5.28;1.10;;;;;;;;;;4889697;29;20460;-70
2023/04/10 05:00:09;;;;;;;5.05;1.17;;;;;;;;;;4900073;29;20585;-70
2023/04/10 05:02:37;;;;;;;5.53;1.25;;;;;;;;;;4890941;29;20044;-70
2023/04/10 05:05:05;;;;;;;5.07;1.20;;;;;;;;;;4897869;29;20139;-70
2023/04/10 05:07:32;;;;;;;5.57;1.25;;;;;;;;;;4900643;29;20032;-70
2023/04/10 05:10:00;;;;;;;6.85;1.40;;;;;;;;;;4900885;29;20400;-70
2023/04/10 05:12:27;;;;;;;4.70;1.20;;;;;;;;;;4904646;29;20039;-70
2023/04/10 05:14:54;;;;;;;5.43;1.30;;;;;;;;;;4897311;29;20036;-70
2023/04/10 05:17:22;;;;;;;5.07;1.50;;;;;;;;;;4892838;29;20479;-70
2023/04/10 05:19:49;;;;;;;4.53;1.20;;;;;;;;;;4903499;29;20036;-71
2023/04/10 05:22:17;;;;;;;7.03;1.30;;;;;;;;;;4891153;29;20059;-69
2023/04/10 05:24:43;;;;;;;7.15;1.30;;;;;;;;;;4902541;29;20608;-69
2023/04/10 05:27:11;;;;;;;5.57;1.25;;;;;;;;;;4903723;29;20043;-71
2023/04/10 05:29:39;;;;;;;5.22;1.30;;;;;;;;;;4896538;29;20051;-69
2023/04/10 05:32:06;;;;;;;4.45;1.10;;;;;;;;;;4904129;29;20046;-71
2023/04/10 05:34:34;;;;;;;5.22;1.40;;;;;;;;;;4896379;29;20019;-71
2023/04/10 05:37:02;;;;;;;4.28;1.00;;;;;;;;;;4891442;29;20455;-69
2023/04/10 05:39:29;;;;;;;4.30;1.13;;;;;;;;;;4906149;29;20036;-69
2023/04/10 05:41:57;;;;;;;4.72;1.30;;;;;;;;;;4898014;29;20475;-69
2023/04/10 05:44:24;;;;;;;6.00;1.20;;;;;;;;;;4894853;28;20039;-69
2023/04/10 05:46:53;;;;;;;5.57;1.45;;;;;;;;;;4903946;29;20039;-71
2023/04/10 05:49:19;;;;;;;10.07;1.70;;;;;;;;;;4902305;29;20069;-69
2023/04/10 05:51:49;;;;;;;10.95;2.10;;;;;;;;;;4889756;29;20067;-70
2023/04/10 05:54:25;;;;;;;7.35;1.40;;;;;;;;;;4891158;29;20038;-69
2023/04/10 05:56:55;;;;;;;3.70;1.10;;;;;;;;;;4892164;29;20048;-69
2023/04/10 05:59:23;;;;;;;4.30;1.20;;;;;;;;;;4907066;29;20565;-70
2023/04/10 06:01:51;;;;;;;5.95;1.50;;;;;;;;;;4885515;29;20035;-70
2023/04/10 06:04:20;;;;;;;7.18;1.30;;;;;;;;;;4886626;29;20045;-70
2023/04/10 06:06:49;;;;;;;4.88;1.30;;;;;;;;;;4901730;29;20035;-70
2023/04/10 06:09:16;;;;;;;5.47;1.40;;;;;;;;;;4882116;29;20070;-70
2023/04/10 06:11:46;;;;;;;3.92;1.38;;;;;;;;;;4893689;29;20037;-70
2023/04/10 06:14:13;;;;;;;7.97;1.45;;;;;;;;;;4881609;29;20032;-70
2023/04/10 06:16:39;;;;;;;7.32;1.55;;;;;;;;;;4886709;29;20032;-72
2023/04/10 06:19:07;;;;;;;5.78;1.33;;;;;;;;;;4889238;29;20376;-72
2023/04/10 06:21:33;;;;;;;8.05;1.50;;;;;;;;;;4885831;29;20574;-69
2023/04/10 06:23:59;;;;;;;6.45;1.52;;;;;;;;;;4885908;29;20055;-70
2023/04/10 06:26:26;;;;;;;;;;;;;;;;;;4896092;29;20498;-70
2023/04/10 06:28:55;;;;;;;4.60;1.48;;;;;;;;;;4891791;29;19916;-69
2023/04/10 06:31:23;;;;;;;8.48;1.90;;;;;;;;;;4888573;29;20357;-70
2023/04/10 06:33:50;;;;;;;8.82;2.60;;;;;;;;;;4892773;29;20138;-70
2023/04/10 06:36:17;;;;;;;7.40;2.70;;;;;;;;;;4887752;29;20062;-69
2023/04/10 06:38:44;;;;;;;7.45;2.17;;;;;;;;;;4884674;29;20119;-71
2023/04/10 06:41:13;;;;;;;9.30;2.30;;;;;;;;;;4882081;29;20586;-71
2023/04/10 06:43:39;;;;;;;8.48;2.50;;;;;;;;;;4892648;29;20231;-71
2023/04/10 06:46:06;;;;;;;;;;;;;;;;;;4883918;29;20031;-72
2023/04/10 06:48:34;;;;;;;9.88;2.30;;;;;;;;;;4891635;29;20656;-70
2023/04/10 06:51:02;;;;;;;8.32;2.20;;;;;;;;;;4891633;29;20769;-71
2023/04/10 06:53:30;;;;;;;9.57;2.67;;;;;;;;;;4902096;29;20024;-70
2023/04/10 06:56:01;;;;;;;13.80;3.20;;;;;;;;;;4894911;28;20067;-72
2023/04/10 06:58:32;;;;;;;9.02;3.10;;;;;;;;;;4893101;29;20064;-69
2023/04/10 07:01:03;;;;;;;16.08;4.22;;;;;;;;;;4902109;29;20502;-70
2023/04/10 07:03:32;;;;;;;13.68;4.05;;;;;;;;;;4895696;29;20376;-70
2023/04/10 07:06:01;;;;;;;14.15;3.95;;;;;;;;;;4882426;29;20047;-71
2023/04/10 07:08:45;;;;;;;;;;;;;;;;;;4902815;29;20592;-71
2023/04/10 07:11:13;;;;;;;12.40;4.50;;;;;;;;;;4902875;29;19919;-69
2023/04/10 07:13:41;;;;;;;15.98;4.88;;;;;;;;;;4903213;29;20027;-72
2023/04/10 07:16:08;;;;;;;15.30;4.47;;;;;;;;;;4900870;29;20039;-71
2023/04/10 07:18:40;;;;;;;13.35;4.53;;;;;;;;;;4903752;29;20031;-70
2023/04/10 07:21:13;;;;;;;13.55;4.68;;;;;;;;;;4900275;29;20130;-71
2023/04/10 07:23:41;;;;;;;17.83;8.32;;;;;;;;;;4901406;29;20047;-71
2023/04/10 07:26:08;;;;;;;19.48;12.57;;;;;;;;;;4901353;29;20466;-70
2023/04/10 07:28:37;;;;;;;18.98;9.85;;;;;;;;;;4902645;29;20040;-71
2023/04/10 07:31:21;;;;;;;10.15;4.78;;;;;;;;;;4908378;29;20048;-71
2023/04/10 07:33:47;;;;;;;9.90;3.28;;;;;;;;;;4894333;29;20425;-71
2023/04/10 07:36:13;;;;;;;;;;;;;;;;;;4872062;29;20122;-71
2023/04/10 07:38:41;;;;;;;8.25;3.00;;;;;;;;;;4908156;29;20369;-71
2023/04/10 07:41:11;;;;;;;24.92;12.35;;;;;;;;;;4900714;28;20047;-71
2023/04/10 07:43:39;;;;;;;32.50;20.08;;;;;;;;;;4888803;29;20361;-71
2023/04/10 07:46:07;;;;;;;28.63;17.17;;;;;;;;;;4887707;29;20040;-71
2023/04/10 07:48:34;;;;;;;16.77;7.75;;;;;;;;;;4899603;29;20557;-70
2023/04/10 07:51:03;;;;;;;13.10;4.97;;;;;;;;;;4902956;29;20059;-70
2023/04/10 07:53:32;;;;;;;9.40;3.95;;;;;;;;;;4908369;29;20031;-69
2023/04/10 07:55:58;;;;;;;9.27;3.13;;;;;;;;;;4899713;29;20323;-70
2023/04/10 07:58:26;;;;;;;6.55;2.40;;;;;;;;;;4905965;29;20032;-69
2023/04/10 08:00:53;;;;;;;9.15;2.90;;;;;;;;;;4902404;29;20042;-70
2023/04/10 08:03:21;;;;;;;8.65;2.95;;;;;;;;;;4911127;28;20127;-70
2023/04/10 08:05:47;;;;;;;8.63;3.30;;;;;;;;;;4905629;29;20044;-70
2023/04/10 08:08:16;;;;;;;9.27;2.88;;;;;;;;;;4900153;29;20039;-70
2023/04/10 08:10:45;;;;;;;7.35;2.40;;;;;;;;;;4902264;29;20032;-70
2023/04/10 08:13:12;;;;;;;8.80;2.35;;;;;;;;;;4900031;29;20111;-69
2023/04/10 08:15:40;;;;;;;9.95;2.40;;;;;;;;;;4902362;29;20059;-69
2023/04/10 08:18:09;;;;;;;6.63;2.00;;;;;;;;;;4901602;29;20317;-69
2023/04/10 08:20:36;;;;;;;6.80;2.42;;;;;;;;;;4903373;29;20032;-69
2023/04/10 08:23:03;;;;;;;6.35;1.77;;;;;;;;;;4885583;29;20052;-70
2023/04/10 08:25:31;;;;;;;6.15;1.90;;;;;;;;;;4872901;29;20900;-70
2023/04/10 08:27:59;;;;;;;7.32;2.08;;;;;;;;;;4870219;29;20944;-71
2023/04/10 08:30:26;;;;;;;7.15;1.90;;;;;;;;;;4892314;29;20162;-71
2023/04/10 08:33:02;;;;;;;5.88;1.98;;;;;;;;;;4889879;29;20442;-71
2023/04/10 08:35:30;;;;;;;8.02;2.50;;;;;;;;;;4896105;29;20361;-70
2023/04/10 08:37:57;;;;;;;7.03;2.53;;;;;;;;;;4887706;29;20184;-71
2023/04/10 08:40:25;;;;;;;8.02;3.03;;;;;;;;;;4891508;29;20712;-70
2023/04/10 08:42:53;;;;;;;7.72;2.90;;;;;;;;;;4876387;29;20180;-70
2023/04/10 08:45:21;;;;;;;8.05;2.83;;;;;;;;;;4888756;29;20565;-70
2023/04/10 08:47:48;;;;;;;8.70;2.92;;;;;;;;;;4892662;29;20052;-71
2023/04/10 08:50:17;;;;;;;7.07;2.80;;;;;;;;;;4885164;29;20072;-70
2023/04/10 08:52:49;;;;;;;6.13;2.28;;;;;;;;;;4888480;29;20044;-70
2023/04/10 08:55:18;;;;;;;6.28;2.03;;;;;;;;;;4885512;29;20222;-71
2023/04/10 08:57:49;;;;;;;7.03;2.30;;;;;;;;;;4888681;29;20040;-71
2023/04/10 09:00:19;;;;;;;6.97;1.88;;;;;;;;;;4888075;29;20114;-73
2023/04/10 09:02:49;;;;;;;6.38;1.80;;;;;;;;;;4894332;29;20442;-70
2023/04/10 09:05:17;;;;;;;6.65;1.65;;;;;;;;;;4893617;29;20418;-72
2023/04/10 09:07:44;;;;;;;5.53;1.85;;;;;;;;;;4888290;29;20496;-70
2023/04/10 09:10:13;;;;;;;6.90;2.00;;;;;;;;;;4886407;29;20042;-70
2023/04/10 09:12:50;;;;;;;6.10;1.70;;;;;;;;;;4892897;29;20558;-71
2023/04/10 09:15:17;;;;;;;4.85;1.58;;;;;;;;;;4901324;29;20125;-70
2023/04/10 09:18:02;;;;;;;7.60;2.30;;;;;;;;;;4909462;29;21042;-71
2023/04/10 09:20:31;;;;;;;5.25;1.75;;;;;;;;;;4905514;29;20472;-70
2023/04/10 09:22:57;;;;;;;5.53;2.10;;;;;;;;;;4902416;29;20766;-71
2023/04/10 09:25:39;;;;;;;7.18;2.58;;;;;;;;;;4904855;29;20115;-70
2023/04/10 09:28:08;;;;;;;10.43;3.35;;;;;;;;;;4885127;29;20516;-69
2023/04/10 09:30:52;;;;;;;10.10;2.85;;;;;;;;;;4903109;29;20027;-69
2023/04/10 09:33:29;;;;;;;9.68;3.05;;;;;;;;;;4888347;29;20045;-71
2023/04/10 09:36:00;;;;;;;8.43;3.58;;;;;;;;;;4901878;29;20325;-69
2023/04/10 09:38:26;;;;;;;7.78;2.90;;;;;;;;;;4905948;29;20039;-69
2023/04/10 09:41:06;;;;;;;8.30;2.78;;;;;;;;;;4890245;29;20032;-69
2023/04/10 09:43:34;;;;;;;9.88;3.10;;;;;;;;;;4894866;29;20043;-70
2023/04/10 09:46:01;;;;;;;9.77;3.30;;;;;;;;;;4901388;29;20059;-70
2023/04/10 09:48:27;;;;;;;8.65;3.20;;;;;;;;;;4903306;29;20050;-69
2023/04/10 09:50:53;;;;;;;9.10;3.03;;;;;;;;;;4901085;29;20051;-70
2023/04/10 09:53:21;;;;;;;7.13;2.60;;;;;;;;;;4906212;28;20851;-70
2023/04/10 09:55:50;;;;;;;7.55;2.72;;;;;;;;;;4905040;29;20062;-70
2023/04/10 09:58:18;;;;;;;10.35;3.70;;;;;;;;;;4884548;29;20446;-69
2023/04/10 10:00:50;;;;;;;7.93;3.42;;;;;;;;;;4902099;29;20829;-72
2023/04/10 10:03:19;;;;;;;7.60;2.92;;;;;;;;;;4888920;29;20036;-71
2023/04/10 10:05:49;;;;;;;10.35;3.58;;;;;;;;;;4901184;29;20306;-69
2023/04/10 10:08:17;;;;;;;7.47;2.45;;;;;;;;;;4900128;29;20051;-69
2023/04/10 10:10:52;;;;;;;7.53;2.53;;;;;;;;;;4901758;29;20035;-70
2023/04/10 10:13:40;;;;;;;7.75;2.70;;;;;;;;;;4905193;29;20032;-70
2023/04/10 10:16:21;;;;;;;8.10;3.08;;;;;;;;;;4893987;28;20035;-70
2023/04/10 10:18:57;;;;;;;8.48;2.95;;;;;;;;;;4901075;29;20568;-70
2023/04/10 10:21:26;;;;;;;6.20;2.28;;;;;;;;;;4899961;29;20462;-70
2023/04/10 10:23:54;;;;;;;8.38;2.00;;;;;;;;;;4888832;29;20057;-70
2023/04/10 10:26:24;;;;;;;7.07;1.98;;;;;;;;;;4901094;29;20031;-70
2023/04/10 10:28:58;;;;;;;6.60;2.22;;;;;;;;;;4898840;29;20516;-70
2023/04/10 10:31:32;;;;;;;6.95;2.30;;;;;;;;;;4903709;29;20142;-71
2023/04/10 10:34:06;;;;;;;6.07;2.00;;;;;;;;;;4893991;29;20469;-69
2023/04/10 10:36:34;;;;;;;8.60;2.22;;;;;;;;;;4899059;29;20403;-68
2023/04/10 10:39:20;;;;;;;6.85;1.70;;;;;;;;;;4898575;29;20427;-70
2023/04/10 10:41:56;;;;;;;6.00;1.70;;;;;;;;;;4898311;29;20079;-70
2023/04/10 10:44:27;;;;;;;5.88;2.00;;;;;;;;;;4897783;29;20685;-69
2023/04/10 10:47:13;;;;;;;5.88;1.65;;;;;;;;;;4899770;29;20050;-68
2023/04/10 10:49:58;;;;;;;4.88;1.58;;;;;;;;;;4904468;29;20036;-69
2023/04/10 10:52:45;;;;;;;5.68;1.60;;;;;;;;;;4898981;29;20502;-70
2023/04/10 10:55:27;;;;;;;6.68;1.65;;;;;;;;;;4896907;29;20504;-70
2023/04/10 10:58:01;;;;;;;7.53;1.50;;;;;;;;;;4898450;29;20550;-69
2023/04/10 11:00:47;;;;;;;5.60;1.50;;;;;;;;;;4903493;29;20032;-70
2023/04/10 11:03:18;;;;;;;5.18;1.45;;;;;;;;;;4900327;29;20036;-70
2023/04/10 11:05:54;;;;;;;6.28;1.50;;;;;;;;;;4905220;29;20512;-70
2023/04/10 11:08:47;;;;;;;6.30;1.33;;;;;;;;;;4895343;29;20032;-70
2023/04/10 11:11:22;;;;;;;5.32;1.50;;;;;;;;;;4904524;29;20023;-69
2023/04/10 11:13:55;;;;;;;6.25;1.40;;;;;;;;;;4905901;29;20156;-69
2023/04/10 11:16:34;;;;;;;5.38;1.20;;;;;;;;;;4906218;29;20059;-70
2023/04/10 11:19:06;;;;;;;6.50;1.27;;;;;;;;;;4901771;29;20367;-70
2023/04/10 11:21:36;;;;;;;6.30;1.30;;;;;;;;;;4905327;29;20039;-69
2023/04/10 11:24:04;;;;;;;8.10;1.30;;;;;;;;;;4902188;29;20039;-69
2023/04/10 11:26:44;;;;;;;4.82;1.42;;;;;;;;;;4904485;29;20503;-69
2023/04/10 11:29:16;;;;;;;5.50;1.30;;;;;;;;;;4903595;29;20134;-69
2023/04/10 11:32:03;;;;;;;6.43;1.30;;;;;;;;;;4907289;29;20751;-68
2023/04/10 11:34:34;;;;;;;18.38;11.48;;;;;;;;;;4905023;29;20040;-68
2023/04/10 11:37:03;;;;;;;8.43;2.65;;;;;;;;;;4903452;29;20115;-69
2023/04/10 11:39:30;;;;;;;6.00;1.45;;;;;;;;;;4901076;29;20493;-69
2023/04/10 11:41:57;;;;;;;12.35;5.05;;;;;;;;;;4870157;29;20530;-69
2023/04/10 11:44:34;;;;;;;12.00;6.90;;;;;;;;;;4907550;29;20070;-68
2023/04/10 11:47:02;;;;;;;8.35;3.13;;;;;;;;;;4902392;29;20519;-69
2023/04/10 11:49:35;;;;;;;7.63;1.33;;;;;;;;;;4900580;29;20044;-69
2023/04/10 11:52:04;;;;;;;6.07;1.20;;;;;;;;;;4898984;29;20048;-68
2023/04/10 11:54:32;;;;;;;5.43;1.80;;;;;;;;;;4905412;29;20146;-69
2023/04/10 11:57:08;;;;;;;4.55;1.55;;;;;;;;;;4899255;29;20052;-68
2023/04/10 11:59:36;;;;;;;5.57;1.38;;;;;;;;;;4894983;29;20028;-69
2023/04/10 12:02:14;;;;;;;4.22;1.20;;;;;;;;;;4899651;29;20336;-69
2023/04/10 12:04:44;;;;;;;4.90;1.20;;;;;;;;;;4888723;29;20080;-68
2023/04/10 12:07:10;;;;;;;4.82;1.45;;;;;;;;;;4891982;29;20043;-68
2023/04/10 12:09:38;;;;;;;7.00;1.63;;;;;;;;;;4905264;29;20107;-68
2023/04/10 12:12:06;;;;;;;4.82;1.38;;;;;;;;;;4905279;29;20073;-70
2023/04/10 12:14:34;;;;;;;6.63;1.10;;;;;;;;;;4902965;29;20223;-68
2023/04/10 12:17:02;;;;;;;5.35;1.10;;;;;;;;;;4902018;29;20043;-69
2023/04/10 12:19:31;;;;;;;4.20;1.30;;;;;;;;;;4892308;29;20032;-69
2023/04/10 12:22:03;;;;;;;4.18;1.30;;;;;;;;;;4901477;29;20044;-69
2023/04/10 12:24:48;;;;;;;4.38;1.23;;;;;;;;;;4906072;29;20038;-68
2023/04/10 12:27:27;;;;;;;5.03;1.30;;;;;;;;;;4902247;29;20376;-69
2023/04/10 12:29:56;;;;;;;3.42;1.00;;;;;;;;;;4903043;29;20060;-69
2023/04/10 12:32:26;;;;;;;5.03;1.30;;;;;;;;;;4905750;29;20383;-69
2023/04/10 12:35:02;;;;;;;4.28;1.20;;;;;;;;;;4901079;29;20027;-69
2023/04/10 12:37:47;;;;;;;5.70;1.40;;;;;;;;;;4901900;29;20424;-70
2023/04/10 12:40:14;;;;;;;5.07;1.33;;;;;;;;;;4897369;29;20706;-69
2023/04/10 12:42:43;;;;;;;5.63;1.40;;;;;;;;;;4901608;29;20039;-68
2023/04/10 12:45:13;;;;;;;7.78;1.95;;;;;;;;;;4900880;29;20040;-69
2023/04/10 12:47:47;;;;;;;6.30;1.17;;;;;;;;;;4889751;29;20493;-68
2023/04/10 12:50:15;;;;;;;4.63;1.30;;;;;;;;;;4900969;29;20511;-68
2023/04/10 12:52:44;;;;;;;4.93;1.20;;;;;;;;;;4895786;29;20055;-67
2023/04/10 12:55:21;;;;;;;5.30;1.30;;;;;;;;;;4894011;29;20095;-69
2023/04/10 12:57:50;;;;;;;4.57;1.30;;;;;;;;;;4886334;29;20438;-69
2023/04/10 13:00:20;;;;;;;5.38;1.45;;;;;;;;;;4900377;28;20070;-68
2023/04/10 13:02:48;;;;;;;6.05;1.20;;;;;;;;;;4904884;29;20036;-69
2023/04/10 13:05:15;;;;;;;4.75;1.02;;;;;;;;;;4900133;29;20035;-69
2023/04/10 13:07:42;;;;;;;5.45;1.20;;;;;;;;;;4897924;29;20154;-69
2023/04/10 13:12:35;;;;;;;5.00;1.30;;;;;;;;;;5327099;23;20076;-74
2023/04/10 13:15:01;;;;;;;4.47;1.23;;;;;;;;;;4954557;28;20038;-73
2023/04/10 13:17:27;;;;;;;4.07;1.13;;;;;;;;;;4956592;28;21058;-74
2023/04/10 13:19:54;;;;;;;5.50;1.42;;;;;;;;;;4954968;28;20548;-74
2023/04/10 13:22:20;;;;;;;4.30;1.17;;;;;;;;;;4944314;28;20389;-73
2023/04/10 13:24:46;;;;;;;4.57;1.40;;;;;;;;;;4957721;28;20034;-75
2023/04/10 13:27:12;;;;;;;5.45;1.65;;;;;;;;;;4955155;28;21017;-74
2023/04/10 13:29:40;;;;;;;6.15;1.83;;;;;;;;;;4955979;28;20362;-75
2023/04/10 13:32:06;;;;;;;4.40;1.42;;;;;;;;;;4955472;28;20058;-74
2023/04/10 13:34:33;;;;;;;6.55;1.65;;;;;;;;;;4960372;28;20041;-73
2023/04/10 13:36:59;;;;;;;6.45;1.77;;;;;;;;;;4952260;28;20114;-73
2023/04/10 13:39:26;;;;;;;5.60;1.90;;;;;;;;;;4956867;28;20161;-74
2023/04/10 13:41:52;;;;;;;4.97;1.33;;;;;;;;;;4953429;28;20035;-73
2023/04/10 13:44:18;;;;;;;5.57;1.40;;;;;;;;;;4955619;28;20354;-74
2023/04/10 13:46:45;;;;;;;7.68;2.10;;;;;;;;;;4944734;28;20469;-73
2023/04/10 13:49:19;;;;;;;5.18;1.50;;;;;;;;;;5041074;27;20533;-72
2023/04/10 13:51:45;;;;;;;4.75;1.27;;;;;;;;;;5050895;28;20037;-73
2023/04/10 13:54:11;;;;;;;5.53;1.70;;;;;;;;;;5039214;28;20032;-73
2023/04/10 13:56:37;;;;;;;4.57;1.60;;;;;;;;;;5029966;28;20032;-74
2023/04/10 13:59:04;;;;;;;4.90;1.52;;;;;;;;;;5024747;28;20838;-74
2023/04/10 14:01:30;;;;;;;3.88;1.27;;;;;;;;;;5035511;28;20034;-73
2023/04/10 14:03:56;;;;;;;4.20;1.20;;;;;;;;;;5038513;28;20359;-73
2023/04/10 14:06:22;;;;;;;3.47;1.23;;;;;;;;;;5038173;28;20332;-72
2023/04/10 14:08:48;;;;;;;4.97;1.42;;;;;;;;;;5037949;28;20408;-73
2023/04/10 14:11:15;;;;;;;7.47;1.50;;;;;;;;;;5037030;28;20040;-72
2023/04/10 14:13:41;;;;;;;6.38;1.55;;;;;;;;;;5012695;28;20139;-72
2023/04/10 14:16:07;;;;;;;7.15;2.10;;;;;;;;;;5032288;28;20040;-73
2023/04/10 14:18:34;;;;;;;5.03;1.40;;;;;;;;;;5035401;28;20044;-74
2023/04/10 14:21:00;;;;;;;6.53;2.25;;;;;;;;;;5016775;28;20033;-75
2023/04/10 14:23:26;;;;;;;5.57;1.50;;;;;;;;;;5042497;28;20027;-72
2023/04/10 14:25:52;;;;;;;4.65;1.30;;;;;;;;;;5032140;28;20046;-73
2023/04/10 14:28:18;;;;;;;4.00;1.50;;;;;;;;;;5037581;28;20087;-73
2023/04/10 14:30:45;;;;;;;4.85;1.38;;;;;;;;;;5041356;28;20063;-72
2023/04/10 14:33:11;;;;;;;5.75;1.58;;;;;;;;;;5040115;28;20055;-73
2023/04/10 14:35:37;;;;;;;4.18;1.23;;;;;;;;;;5043835;28;20438;-73
2023/04/10 14:38:04;;;;;;;4.25;1.27;;;;;;;;;;5023163;28;20443;-73
2023/04/10 14:40:30;;;;;;;4.00;1.10;;;;;;;;;;5043543;28;20043;-73
2023/04/10 14:42:56;;;;;;;4.43;1.40;;;;;;;;;;5031277;28;20469;-73
2023/04/10 14:45:22;;;;;;;3.75;1.17;;;;;;;;;;5033805;28;20455;-75
2023/04/10 14:47:48;;;;;;;5.70;1.35;;;;;;;;;;5031661;28;20087;-76
2023/04/10 14:50:14;;;;;;;5.18;1.30;;;;;;;;;;5016832;28;20537;-72
2023/04/10 14:52:40;;;;;;;4.65;1.65;;;;;;;;;;5036601;28;20451;-73
2023/04/10 14:55:07;;;;;;;4.18;1.58;;;;;;;;;;5033609;28;20248;-74
2023/04/10 14:57:33;;;;;;;4.80;1.20;;;;;;;;;;5035858;28;20301;-73
2023/04/10 15:00:00;;;;;;;6.43;1.30;;;;;;;;;;5023721;28;20118;-73